| time (UTC) | temp F | wind direction | speed knots | gust knots | rain 1hr in | rain 24hr in | rain mn in | humidity % | barometer mb |
| 20260505122040 | 37 | 50 | 5.2 | 12.2 | 0.05 | 0.31 | 0.13 | 94 | 1009.0 |
| 20260505121539 | 37 | 32 | 7.8 | 12.2 | 0.04 | 0.30 | 0.12 | 93 | 1008.9 |
| 20260505121042 | 37 | 39 | 6.1 | 12.2 | 0.04 | 0.30 | 0.12 | 93 | 1009.0 |
| 20260505120538 | 37 | 360 | 7.8 | 12.2 | 0.05 | 0.30 | 0.12 | 93 | 1009.0 |
| 20260505120048 | 37 | 15 | 5.2 | 10.4 | 0.04 | 0.28 | 0.11 | 93 | 1008.6 |
| 20260505115536 | 37 | 18 | 6.1 | 13.0 | 0.04 | 0.28 | 0.11 | 93 | 1008.5 |
| 20260505115033 | 37 | 30 | 7.8 | 13.0 | 0.05 | 0.28 | 0.11 | 93 | 1008.5 |
| 20260505114533 | 38 | 17 | 3.5 | 13.0 | 0.04 | 0.28 | 0.10 | 93 | 1008.5 |
| 20260505114032 | 38 | 58 | 4.3 | 12.2 | 0.04 | 0.28 | 0.10 | 93 | 1008.4 |
| 20260505113532 | 38 | 46 | 6.1 | 12.2 | 0.04 | 0.28 | 0.10 | 93 | 1008.4 |
| 20260505113030 | 38 | 5 | 6.1 | 11.3 | 0.04 | 0.27 | 0.09 | 93 | 1008.4 |
| 20260505112529 | 38 | 5 | 5.2 | 13.0 | 0.04 | 0.27 | 0.09 | 93 | 1008.3 |
| 20260505112028 | 38 | 86 | 7.0 | 13.0 | 0.03 | 0.26 | 0.08 | 93 | 1008.2 |
| 20260505111532 | 38 | 37 | 7.8 | 13.0 | 0.04 | 0.26 | 0.08 | 93 | 1008.1 |
| 20260505111029 | 39 | 27 | 7.0 | 13.0 | 0.05 | 0.26 | 0.08 | 93 | 1007.9 |
| 20260505110525 | 39 | 53 | 7.8 | 13.0 | 0.04 | 0.25 | 0.07 | 93 | 1007.8 |
| 20260505102016 | 40 | 27 | 8.7 | 12.2 | 0.01 | 0.22 | 0.04 | 92 | 1007.3 |
| 20260505101515 | 40 | 57 | 5.2 | 11.3 | 0.01 | 0.22 | 0.04 | 92 | 1007.1 |
| 20260505101015 | 41 | 49 | 5.2 | 10.4 | 0.00 | 0.21 | 0.03 | 92 | 1007.0 |
| 20260505100513 | 41 | 40 | 6.1 | 12.2 | 0.00 | 0.21 | 0.03 | 92 | 1006.8 |
| 20260505100012 | 41 | 39 | 7.0 | 13.9 | 0.00 | 0.21 | 0.03 | 92 | 1006.5 |
| 20260505095511 | 41 | 66 | 5.2 | 13.9 | 0.01 | 0.21 | 0.03 | 92 | 1006.6 |
| 20260505095010 | 41 | 332 | 7.8 | 14.8 | 0.01 | 0.21 | 0.03 | 92 | 1006.5 |
| 20260505094510 | 41 | 49 | 7.8 | 15.6 | 0.01 | 0.21 | 0.03 | 92 | 1006.3 |
| 20260505094009 | 41 | 60 | 9.6 | 15.6 | 0.01 | 0.21 | 0.03 | 92 | 1006.0 |
| 20260505093508 | 41 | 64 | 8.7 | 13.0 | 0.01 | 0.21 | 0.03 | 92 | 1006.2 |
| 20260505093007 | 41 | 42 | 7.0 | 13.9 | 0.01 | 0.21 | 0.03 | 92 | 1006.3 |
| 20260505092507 | 41 | 23 | 7.0 | 15.6 | 0.02 | 0.21 | 0.03 | 92 | 1006.2 |
| 20260505092007 | 41 | 32 | 9.6 | 15.6 | 0.02 | 0.21 | 0.03 | 92 | 1006.0 |
| 20260505091505 | 41 | 35 | 9.6 | 13.9 | 0.02 | 0.21 | 0.03 | 93 | 1006.0 |
| 20260505091004 | 41 | 30 | 9.6 | 13.9 | 0.02 | 0.21 | 0.03 | 93 | 1006.0 |
| 20260505090504 | 41 | 46 | 7.8 | 14.8 | 0.02 | 0.21 | 0.03 | 93 | 1006.0 |
| 20260505090003 | 41 | 32 | 7.8 | 13.9 | 0.02 | 0.20 | 0.02 | 93 | 1006.0 |
| 20260505085502 | 41 | 59 | 8.7 | 13.9 | 0.02 | 0.20 | 0.02 | 93 | 1006.1 |
| 20260505085001 | 42 | 47 | 7.8 | 14.8 | 0.02 | 0.20 | 0.02 | 93 | 1006.1 |
| 20260505084615 | 42 | 50 | 7.8 | 15.6 | 0.02 | 0.20 | 0.02 | 93 | 1006.0 |
| 20260505084100 | 42 | 51 | 10.4 | 15.6 | 0.02 | 0.20 | 0.02 | 93 | 1005.9 |
| 20260505083602 | 42 | 59 | 9.6 | 15.6 | 0.02 | 0.20 | 0.02 | 93 | 1006.0 |
| 20260505083111 | 42 | 40 | 8.7 | 15.6 | 0.02 | 0.20 | 0.02 | 92 | 1006.0 |
| 20260505082557 | 42 | 57 | 7.8 | 13.9 | 0.02 | 0.20 | 0.02 | 92 | 1006.1 |
| 20260505082056 | 42 | 67 | 7.8 | 13.9 | 0.01 | 0.19 | 0.01 | 92 | 1006.0 |
| 20260505081602 | 42 | 39 | 7.8 | 14.8 | 0.01 | 0.19 | 0.01 | 91 | 1005.9 |
| 20260505081054 | 43 | 35 | 7.8 | 14.8 | 0.01 | 0.19 | 0.01 | 90 | 1005.9 |
| 20260505080552 | 43 | 56 | 7.0 | 14.8 | 0.01 | 0.19 | 0.01 | 89 | 1005.9 |
| 20260505080059 | 44 | 59 | 8.7 | 17.4 | 0.00 | 0.18 | 0.00 | 87 | 1006.0 |
| 20260505075549 | 47 | 17 | 12.2 | 17.4 | 0.00 | 0.18 | 0.00 | 87 | 1006.0 |
| 20260505075048 | 47 | 80 | 3.5 | 7.0 | 0.00 | 0.18 | 0.00 | 88 | 1006.2 |
| 20260505074548 | 47 | 136 | 1.7 | 4.3 | 0.00 | 0.18 | 0.00 | 88 | 1006.2 |
| 20260505074047 | 47 | 138 | 1.7 | 2.6 | 0.00 | 0.18 | 0.00 | 88 | 1006.1 |
| 20260505073548 | 47 | 138 | 0.9 | 2.6 | 0.00 | 0.18 | 0.00 | 88 | 1006.1 |
| 20260505073053 | 47 | 138 | 0.0 | 1.7 | 0.00 | 0.18 | 0.00 | 87 | 1006.2 |
| 20260505072546 | 48 | 138 | 0.0 | 1.7 | 0.00 | 0.18 | 0.00 | 87 | 1006.1 |
| 20260505072046 | 48 | 138 | 0.0 | 1.7 | 0.00 | 0.18 | 0.00 | 88 | 1006.1 |
| 20260505071549 | 48 | 138 | 0.0 | 3.5 | 0.00 | 0.18 | 0.00 | 87 | 1006.0 |
| 20260505071049 | 48 | 138 | 0.9 | 3.5 | 0.00 | 0.18 | 0.00 | 87 | 1005.9 |
| 20260505070545 | 48 | 138 | 0.9 | 4.3 | 0.00 | 0.18 | 0.00 | 87 | 1005.8 |
| 20260505070051 | 48 | 138 | 1.7 | 6.1 | 0.00 | 0.18 | 0.00 | 87 | 1005.7 |
| 20260505065544 | 48 | 138 | 2.6 | 6.1 | 0.00 | 0.18 | 0.00 | 88 | 1005.6 |
| 20260505065042 | 48 | 140 | 2.6 | 6.1 | 0.00 | 0.18 | 0.00 | 88 | 1005.6 |
| 20260505064542 | 48 | 140 | 3.5 | 6.1 | 0.00 | 0.18 | 0.00 | 89 | 1005.6 |
| 20260505064040 | 48 | 140 | 2.6 | 6.1 | 0.00 | 0.18 | 0.00 | 89 | 1005.7 |
| 20260505063540 | 48 | 140 | 2.6 | 6.1 | 0.00 | 0.18 | 0.00 | 89 | 1005.8 |
| 20260505063048 | 48 | 140 | 1.7 | 7.0 | 0.00 | 0.18 | 0.00 | 90 | 1005.8 |
| 20260505062540 | 48 | 140 | 1.7 | 7.8 | 0.00 | 0.18 | 0.00 | 90 | 1005.8 |
| 20260505062038 | 48 | 144 | 2.6 | 7.8 | 0.00 | 0.18 | 0.00 | 91 | 1005.9 |
| 20260505061536 | 48 | 177 | 2.6 | 6.1 | 0.00 | 0.18 | 0.00 | 91 | 1005.9 |
| 20260505061035 | 49 | 204 | 0.9 | 4.3 | 0.00 | 0.18 | 0.00 | 92 | 1005.8 |
| 20260505060536 | 49 | 205 | 1.7 | 4.3 | 0.00 | 0.18 | 0.00 | 91 | 1005.8 |
| 20260505060052 | 49 | 211 | 0.9 | 4.3 | 0.00 | 0.18 | 0.00 | 91 | 1005.9 |
| 20260505055532 | 49 | 211 | 1.7 | 4.3 | 0.00 | 0.18 | 0.18 | 91 | 1005.8 |
| 20260505055031 | 49 | 212 | 1.7 | 4.3 | 0.01 | 0.18 | 0.18 | 91 | 1005.8 |
| 20260505054531 | 49 | 213 | 0.9 | 3.5 | 0.01 | 0.18 | 0.18 | 92 | 1005.7 |
| 20260505054034 | 49 | 217 | 0.9 | 3.5 | 0.01 | 0.18 | 0.18 | 92 | 1005.7 |
| 20260505053531 | 49 | 219 | 1.7 | 3.5 | 0.01 | 0.18 | 0.18 | 91 | 1005.6 |
| 20260505053032 | 49 | 221 | 0.9 | 4.3 | 0.02 | 0.18 | 0.18 | 91 | 1005.6 |
| 20260505052529 | 49 | 221 | 0.9 | 4.3 | 0.03 | 0.18 | 0.18 | 91 | 1005.6 |
| 20260505052029 | 49 | 227 | 1.7 | 5.2 | 0.03 | 0.18 | 0.18 | 91 | 1005.6 |
| 20260505051530 | 49 | 229 | 3.5 | 5.2 | 0.04 | 0.18 | 0.18 | 91 | 1005.4 |
| 20260505051028 | 49 | 232 | 2.6 | 5.2 | 0.05 | 0.18 | 0.18 | 90 | 1005.4 |
| 20260505050528 | 49 | 232 | 2.6 | 5.2 | 0.06 | 0.18 | 0.18 | 89 | 1005.4 |
| 20260505041531 | 49 | 248 | 1.7 | 6.1 | 0.12 | 0.14 | 0.14 | 88 | 1005.5 |
| 20260505041026 | 50 | 248 | 2.6 | 7.0 | 0.12 | 0.13 | 0.13 | 87 | 1005.5 |
| 20260505040530 | 50 | 248 | 3.5 | 7.0 | 0.12 | 0.12 | 0.12 | 87 | 1005.4 |
| 20260505040025 | 50 | 249 | 3.5 | 7.8 | 0.11 | 0.11 | 0.11 | 86 | 1005.3 |
| 20260505035527 | 51 | 263 | 4.3 | 7.8 | 0.10 | 0.10 | 0.10 | 86 | 1005.2 |
| 20260505035023 | 51 | 276 | 5.2 | 7.8 | 0.08 | 0.08 | 0.08 | 85 | 1005.2 |
| 20260505034524 | 51 | 294 | 3.5 | 6.1 | 0.07 | 0.07 | 0.07 | 84 | 1005.2 |
| 20260505034027 | 51 | 302 | 2.6 | 4.3 | 0.06 | 0.06 | 0.06 | 84 | 1005.3 |
| 20260505033522 | 52 | 308 | 2.6 | 4.3 | 0.05 | 0.05 | 0.05 | 83 | 1005.1 |
| 20260505033022 | 52 | 309 | 1.7 | 3.5 | 0.05 | 0.05 | 0.05 | 82 | 1005.0 |
| 20260505032520 | 52 | 309 | 0.9 | 2.6 | 0.04 | 0.04 | 0.04 | 81 | 1005.0 |
| 20260505032023 | 52 | 310 | 0.0 | 1.7 | 0.03 | 0.03 | 0.03 | 80 | 1004.9 |
| 20260505031520 | 52 | 310 | 0.0 | 1.7 | 0.02 | 0.02 | 0.02 | 80 | 1004.8 |
| 20260505031018 | 52 | 310 | 0.0 | 0.0 | 0.01 | 0.01 | 0.01 | 78 | 1004.7 |
| 20260505030518 | 52 | 310 | 0.0 | 0.0 | 0.00 | 0.00 | 0.00 | 78 | 1004.5 |
| 20260505030016 | 52 | 310 | 0.0 | 0.9 | 0.00 | 0.00 | 0.00 | 77 | 1004.4 |
| 20260505025518 | 52 | 310 | 0.0 | 0.9 | 0.00 | 0.00 | 0.00 | 77 | 1004.3 |
| 20260505025014 | 52 | 310 | 0.0 | 0.0 | 0.00 | 0.00 | 0.00 | 76 | 1004.2 |
| 20260505024514 | 52 | 310 | 0.0 | 1.7 | 0.00 | 0.00 | 0.00 | 76 | 1004.1 |
| 20260505024015 | 52 | 310 | 0.0 | 3.5 | 0.00 | 0.00 | 0.00 | 77 | 1004.1 |
| 20260505023513 | 52 | 310 | 0.9 | 5.2 | 0.00 | 0.00 | 0.00 | 77 | 1004.0 |
| 20260505023014 | 53 | 309 | 2.6 | 5.2 | 0.00 | 0.00 | 0.00 | 76 | 1004.0 |
| 20260505022514 | 53 | 309 | 1.7 | 4.3 | 0.00 | 0.00 | 0.00 | 75 | 1003.9 |
| 20260505022012 | 53 | 309 | 2.6 | 5.2 | 0.00 | 0.00 | 0.00 | 74 | 1003.8 |
| 20260505021512 | 53 | 309 | 3.5 | 5.2 | 0.00 | 0.00 | 0.00 | 74 | 1003.9 |
| 20260505021012 | 53 | 309 | 3.5 | 7.0 | 0.00 | 0.00 | 0.00 | 74 | 1004.0 |
| 20260505020511 | 53 | 306 | 3.5 | 7.0 | 0.00 | 0.00 | 0.00 | 74 | 1003.9 |
| 20260505020010 | 53 | 304 | 3.5 | 12.2 | 0.00 | 0.00 | 0.00 | 73 | 1004.0 |
| 20260505015510 | 54 | 303 | 7.0 | 12.2 | 0.00 | 0.00 | 0.00 | 69 | 1004.0 |
| 20260505015009 | 54 | 320 | 8.7 | 13.9 | 0.00 | 0.00 | 0.00 | 69 | 1003.9 |
| 20260505014513 | 56 | 302 | 11.3 | 13.9 | 0.00 | 0.00 | 0.00 | 64 | 1003.7 |
| 20260505014008 | 56 | 292 | 4.3 | 8.7 | 0.00 | 0.00 | 0.00 | 65 | 1003.6 |
| 20260505013510 | 56 | 301 | 3.5 | 4.3 | 0.00 | 0.00 | 0.00 | 61 | 1003.6 |
| 20260505013006 | 57 | 301 | 2.6 | 7.8 | 0.00 | 0.00 | 0.00 | 59 | 1003.7 |
| 20260505012506 | 57 | 304 | 5.2 | 9.6 | 0.00 | 0.00 | 0.00 | 59 | 1003.6 |
| 20260505012005 | 58 | 313 | 6.1 | 12.2 | 0.00 | 0.00 | 0.00 | 56 | 1003.4 |
| 20260505011505 | 58 | 314 | 8.7 | 13.0 | 0.00 | 0.00 | 0.00 | 52 | 1003.3 |
| 20260505011005 | 59 | 334 | 7.0 | 10.4 | 0.00 | 0.00 | 0.00 | 49 | 1003.1 |
| 20260505010505 | 59 | 338 | 7.0 | 10.4 | 0.00 | 0.00 | 0.00 | 49 | 1002.8 |
| 20260505010005 | 59 | 340 | 7.8 | 10.4 | 0.00 | 0.00 | 0.00 | 49 | 1002.6 |
| 20260505005507 | 59 | 349 | 7.0 | 10.4 | 0.00 | 0.00 | 0.00 | 48 | 1002.4 |
| 20260505005004 | 59 | 336 | 7.0 | 9.6 | 0.00 | 0.00 | 0.00 | 49 | 1002.3 |
| 20260505004506 | 59 | 337 | 6.1 | 10.4 | 0.00 | 0.00 | 0.00 | 49 | 1002.4 |
| 20260505004003 | 59 | 350 | 7.8 | 11.3 | 0.00 | 0.00 | 0.00 | 47 | 1002.3 |
| 20260505003503 | 59 | 342 | 8.7 | 13.9 | 0.00 | 0.00 | 0.00 | 47 | 1002.3 |
| 20260505003003 | 59 | 344 | 9.6 | 13.9 | 0.00 | 0.00 | 0.00 | 47 | 1002.4 |
| 20260505002503 | 59 | 346 | 8.7 | 12.2 | 0.00 | 0.00 | 0.00 | 47 | 1002.4 |
| 20260505002003 | 59 | 341 | 8.7 | 12.2 | 0.00 | 0.00 | 0.00 | 48 | 1002.4 |
| 20260505001503 | 59 | 339 | 8.7 | 14.8 | 0.00 | 0.00 | 0.00 | 48 | 1002.3 |
| 20260505001006 | 60 | 340 | 11.3 | 15.6 | 0.00 | 0.00 | 0.00 | 47 | 1002.4 |
| 20260505000505 | 60 | 342 | 9.6 | 15.6 | 0.00 | 0.00 | 0.00 | 46 | 1002.3 |
| 20260505000004 | 61 | 323 | 8.7 | 15.6 | 0.00 | 0.00 | 0.00 | 45 | 1002.4 |
| 20260504235502 | 62 | 339 | 3.5 | 11.3 | 0.00 | 0.00 | 0.00 | 40 | 1002.5 |
| 20260504235002 | 62 | 337 | 7.8 | 13.9 | 0.00 | 0.00 | 0.00 | 40 | 1002.4 |
| 20260504234502 | 62 | 360 | 7.0 | 13.9 | 0.00 | 0.00 | 0.00 | 39 | 1002.3 |
| 20260504234002 | 63 | 325 | 5.2 | 14.8 | 0.00 | 0.00 | 0.00 | 39 | 1002.5 |
| 20260504233502 | 63 | 250 | 7.8 | 14.8 | 0.00 | 0.00 | 0.00 | 38 | 1002.4 |
| 20260504233005 | 64 | 284 | 7.0 | 9.6 | 0.00 | 0.00 | 0.00 | 36 | 1002.2 |
| 20260504232505 | 64 | 312 | 5.2 | 9.6 | 0.00 | 0.00 | 0.00 | 35 | 1002.2 |
| 20260504232001 | 64 | 304 | 7.0 | 11.3 | 0.00 | 0.00 | 0.00 | 35 | 1002.3 |
| 20260504231501 | 64 | 340 | 7.0 | 11.3 | 0.00 | 0.00 | 0.00 | 35 | 1002.1 |
| 20260504231001 | 64 | 347 | 7.0 | 10.4 | 0.00 | 0.00 | 0.00 | 35 | 1001.9 |
| 20260504230503 | 64 | 349 | 6.1 | 12.2 | 0.00 | 0.00 | 0.00 | 35 | 1001.7 |
| 20260504230100 | 64 | 355 | 7.8 | 12.2 | 0.00 | 0.00 | 0.00 | 35 | 1001.5 |
| 20260504225601 | 64 | 348 | 7.0 | 12.2 | 0.00 | 0.00 | 0.00 | 34 | 1001.4 |
| 20260504225059 | 64 | 5 | 7.0 | 13.0 | 0.00 | 0.00 | 0.00 | 34 | 1001.2 |
| 20260504224600 | 64 | 28 | 9.6 | 14.8 | 0.00 | 0.00 | 0.00 | 34 | 1001.1 |
| 20260504224101 | 64 | 344 | 9.6 | 13.9 | 0.00 | 0.00 | 0.00 | 34 | 1000.8 |
| 20260504223604 | 65 | 17 | 8.7 | 16.5 | 0.00 | 0.00 | 0.00 | 33 | 1000.8 |
| 20260504223122 | 65 | 14 | 13.0 | 18.2 | 0.00 | 0.00 | 0.00 | 32 | 1000.7 |
| 20260504222602 | 66 | 18 | 10.4 | 18.2 | 0.00 | 0.00 | 0.00 | 31 | 1000.8 |
| 20260504222059 | 66 | 13 | 7.8 | 15.6 | 0.00 | 0.00 | 0.00 | 32 | 1000.8 |
| 20260504221603 | 66 | 31 | 8.7 | 13.9 | 0.00 | 0.00 | 0.00 | 31 | 1000.9 |
| 20260504221059 | 66 | 36 | 11.3 | 18.2 | 0.00 | 0.00 | 0.00 | 31 | 1000.8 |
| 20260504220559 | 66 | 360 | 11.3 | 18.2 | 0.00 | 0.00 | 0.00 | 30 | 1000.7 |
| 20260504215558 | 68 | 26 | 13.9 | 19.1 | 0.00 | 0.00 | 0.00 | 29 | 1000.8 |
| 20260504215058 | 67 | 17 | 7.8 | 18.2 | 0.00 | 0.00 | 0.00 | 30 | 1001.3 |
| 20260504214557 | 67 | 14 | 8.7 | 19.1 | 0.00 | 0.00 | 0.00 | 31 | 1001.6 |
| 20260504214100 | 67 | 9 | 12.2 | 19.1 | 0.00 | 0.00 | 0.00 | 31 | 1001.6 |
| 20260504213557 | 66 | 22 | 10.4 | 19.1 | 0.00 | 0.00 | 0.00 | 31 | 1001.6 |
| 20260504213106 | 66 | 351 | 12.2 | 19.1 | 0.00 | 0.00 | 0.00 | 32 | 1001.6 |
| 20260504212558 | 66 | 360 | 11.3 | 21.7 | 0.00 | 0.00 | 0.00 | 31 | 1001.7 |
| 20260504212057 | 65 | 345 | 14.8 | 21.7 | 0.00 | 0.00 | 0.00 | 33 | 1001.8 |
| 20260504211651 | 65 | 338 | 6.1 | 15.6 | 0.00 | 0.00 | 0.00 | 33 | 1002.0 |
| 20260504211056 | 64 | 278 | 12.2 | 15.6 | 0.00 | 0.00 | 0.00 | 34 | 1002.0 |
| 20260504210559 | 64 | 331 | 6.1 | 21.7 | 0.00 | 0.00 | 0.00 | 35 | 1001.9 |
| 20260504210056 | 64 | 329 | 12.2 | 21.7 | 0.00 | 0.00 | 0.00 | 40 | 1001.7 |
| 20260504205558 | 66 | 327 | 14.8 | 25.2 | 0.00 | 0.00 | 0.00 | 35 | 1001.2 |
| 20260504205053 | 67 | 342 | 14.8 | 25.2 | 0.00 | 0.00 | 0.00 | 28 | 1001.0 |
| 20260504204553 | 68 | 333 | 13.9 | 20.0 | 0.00 | 0.00 | 0.00 | 26 | 1000.6 |
| 20260504204054 | 68 | 328 | 14.8 | 23.5 | 0.00 | 0.00 | 0.00 | 25 | 1000.2 |
| 20260504203555 | 68 | 360 | 15.6 | 26.1 | 0.00 | 0.00 | 0.00 | 26 | 999.9 |
| 20260504203057 | 69 | 360 | 19.1 | 26.1 | 0.00 | 0.00 | 0.00 | 25 | 999.8 |
| 20260504202553 | 70 | 346 | 14.8 | 24.3 | 0.00 | 0.00 | 0.00 | 24 | 999.9 |
| 20260504202054 | 71 | 360 | 14.8 | 24.3 | 0.00 | 0.00 | 0.00 | 23 | 1000.0 |
| 20260504201559 | 72 | 342 | 13.9 | 20.9 | 0.00 | 0.00 | 0.00 | 22 | 1000.1 |
| 20260504201052 | 72 | 310 | 10.4 | 17.4 | 0.00 | 0.00 | 0.00 | 21 | 1000.1 |
| 20260504200552 | 73 | 343 | 10.4 | 18.2 | 0.00 | 0.00 | 0.00 | 20 | 1000.1 |
| 20260504200054 | 73 | 311 | 12.2 | 18.2 | 0.00 | 0.00 | 0.00 | 20 | 1000.1 |
| 20260504195551 | 73 | 290 | 7.8 | 15.6 | 0.00 | 0.00 | 0.00 | 19 | 1000.1 |
| 20260504195051 | 74 | 285 | 9.6 | 17.4 | 0.00 | 0.00 | 0.00 | 19 | 1000.1 |
| 20260504194555 | 74 | 295 | 11.3 | 19.1 | 0.00 | 0.00 | 0.00 | 19 | 1000.2 |
| 20260504194051 | 74 | 296 | 10.4 | 19.1 | 0.00 | 0.00 | 0.00 | 18 | 1000.2 |
| 20260504193551 | 74 | 285 | 10.4 | 15.6 | 0.00 | 0.00 | 0.00 | 18 | 1000.0 |
| 20260504193056 | 74 | 287 | 8.7 | 15.6 | 0.00 | 0.00 | 0.00 | 19 | 1000.1 |
| 20260504192551 | 74 | 271 | 10.4 | 17.4 | 0.00 | 0.00 | 0.00 | 18 | 1000.0 |
| 20260504192049 | 74 | 288 | 7.8 | 17.4 | 0.00 | 0.00 | 0.00 | 18 | 1000.2 |
| 20260504191607 | 73 | 324 | 12.2 | 16.5 | 0.00 | 0.00 | 0.00 | 18 | 1000.1 |
| 20260504191050 | 73 | 288 | 11.3 | 15.6 | 0.00 | 0.00 | 0.00 | 19 | 1000.0 |
| 20260504190550 | 74 | 275 | 11.3 | 18.2 | 0.00 | 0.00 | 0.00 | 18 | 1000.0 |
| 20260504190104 | 75 | 288 | 10.4 | 20.0 | 0.00 | 0.00 | 0.00 | 18 | 1000.1 |
| 20260504185547 | 75 | 311 | 11.3 | 19.1 | 0.00 | 0.00 | 0.00 | 19 | 1000.1 |
| 20260504185046 | 74 | 307 | 13.9 | 19.1 | 0.00 | 0.00 | 0.00 | 19 | 1000.0 |
| 20260504184551 | 74 | 313 | 11.3 | 19.1 | 0.00 | 0.00 | 0.00 | 18 | 1000.1 |
| 20260504184049 | 75 | 261 | 11.3 | 19.1 | 0.00 | 0.00 | 0.00 | 19 | 1000.1 |
| 20260504183548 | 75 | 261 | 11.3 | 16.5 | 0.00 | 0.00 | 0.00 | 18 | 1000.1 |
| 20260504183044 | 74 | 278 | 10.4 | 17.4 | 0.00 | 0.00 | 0.00 | 19 | 1000.3 |
| 20260504182545 | 74 | 306 | 13.9 | 17.4 | 0.00 | 0.00 | 0.00 | 19 | 1000.4 |
| 20260504182041 | 73 | 283 | 11.3 | 20.0 | 0.00 | 0.00 | 0.00 | 19 | 1000.5 |
| 20260504181540 | 73 | 284 | 13.0 | 20.0 | 0.00 | 0.00 | 0.00 | 19 | 1000.5 |
| 20260504181039 | 72 | 360 | 12.2 | 19.1 | 0.00 | 0.00 | 0.00 | 20 | 1000.5 |
| 20260504180538 | 72 | 303 | 13.0 | 19.1 | 0.00 | 0.00 | 0.00 | 20 | 1000.6 |
| 20260504180036 | 72 | 360 | 13.9 | 18.2 | 0.00 | 0.00 | 0.00 | 21 | 1000.7 |
| 20260504175535 | 72 | 360 | 8.7 | 13.9 | 0.00 | 0.00 | 0.00 | 22 | 1000.8 |
| 20260504175034 | 72 | 286 | 8.7 | 14.8 | 0.00 | 0.00 | 0.00 | 23 | 1001.1 |
| 20260504174536 | 72 | 291 | 10.4 | 16.5 | 0.00 | 0.00 | 0.00 | 23 | 1001.1 |
| 20260504174032 | 72 | 258 | 10.4 | 16.5 | 0.00 | 0.00 | 0.00 | 23 | 1001.2 |
| 20260504173532 | 71 | 277 | 9.6 | 15.6 | 0.00 | 0.00 | 0.00 | 24 | 1001.1 |
| 20260504173030 | 71 | 286 | 10.4 | 15.6 | 0.00 | 0.00 | 0.00 | 24 | 1001.2 |
| 20260504172529 | 71 | 292 | 11.3 | 17.4 | 0.00 | 0.00 | 0.00 | 24 | 1001.3 |
| 20260504172028 | 71 | 360 | 12.2 | 17.4 | 0.00 | 0.00 | 0.00 | 24 | 1001.4 |
| 20260504171529 | 71 | 267 | 11.3 | 18.2 | 0.00 | 0.00 | 0.00 | 25 | 1001.4 |
| 20260504171027 | 70 | 290 | 10.4 | 16.5 | 0.00 | 0.00 | 0.00 | 25 | 1001.5 |
| 20260504170524 | 69 | 265 | 10.4 | 16.5 | 0.00 | 0.00 | 0.00 | 26 | 1001.5 |
| 20260504151059 | 58 | 227 | 5.2 | 7.8 | 0.00 | 0.00 | 0.00 | 38 | 1002.3 |
| 20260504150554 | 58 | 227 | 5.2 | 7.8 | 0.00 | 0.00 | 0.00 | 38 | 1002.2 |
| 20260504141043 | 53 | 226 | 5.2 | 8.7 | 0.00 | 0.00 | 0.00 | 44 | 1002.4 |
| 20260504140548 | 53 | 223 | 6.1 | 8.7 | 0.00 | 0.00 | 0.00 | 44 | 1002.3 |
| 20260504130537 | 48 | 217 | 4.3 | 7.8 | 0.00 | 0.00 | 0.00 | 52 | 1002.3 |